Marston, Missouri
Current Conditions -  °F | °C
As of 7:15 AM on Thursday 27 Nov 2014 (Local Time) from KUCY Reporting Station
Broken Clouds Broken Clouds  
Wind Chill: -3°   Ceiling: 2300
Heat Index:   Visibility: 10mi
Dew Point: -1°   Wind: 10mph
Humidity: 87%   Direction: 350°N
Pressure: 30.38"   Gusts: NA
Location:  36.52°N, 89.61°W
Report Text: KUCY 271315Z AUTO 35009KT 10SM SCT016 BKN023 BKN050 01/M01 A3038 RMK
Loading
Personal Weather Stations






























Interactive Weather Map New forecast layout! Learn more

10-Day Weather Forecast

Advertisements
Track Severe Weather on mobile